Time;durP1;ratioP1;P1;durP2;ratioP2;P2;SDS_P1;SDS_P2;PMS_P1;PMS_P2;Temp;Humidity;BMP_temperature;BMP_pressure;BME280_temperature;BME280_humidity;BME280_pressure;Samples;Min_cycle;Max_cycle;Signal;HPM_P1;HPM_P2
2022/09/28 00:01:43;;;;;;;;;;;;;;;13.16;100.00;98580.13;5012060;28;771;-59
2022/09/28 00:04:11;;;;;;;;;;;;;;;13.11;100.00;98577.16;5011895;28;861;-59
2022/09/28 00:06:38;;;;;;;;;;;;;;;13.11;100.00;98575.16;5011929;28;1946;-59
2022/09/28 00:09:04;;;;;;;;;;;;;;;13.10;100.00;98572.81;5011871;28;847;-59
2022/09/28 00:11:32;;;;;;;;;;;;;;;13.08;100.00;98581.63;5011992;28;795;-59
2022/09/28 00:14:02;;;;;;;;;;;;;;;13.12;100.00;98576.72;5012048;28;803;-59
2022/09/28 00:16:34;;;;;;;;;;;;;;;13.15;100.00;98573.03;5011668;28;858;-59
2022/09/28 00:19:01;;;;;;;;;;;;;;;13.19;100.00;98575.69;5011527;28;858;-58
2022/09/28 00:21:29;;;;;;;;;;;;;;;13.18;100.00;98563.81;5011682;28;807;-58
2022/09/28 00:24:11;;;;;;;;;;;;;;;13.16;100.00;98569.03;5011545;28;866;-58
2022/09/28 00:26:39;;;;;;;;;;;;;;;13.12;100.00;98570.38;5011492;28;1878;-59
2022/09/28 00:29:12;;;;;;;;;;;;;;;13.00;100.00;98575.53;5011461;28;787;-59
2022/09/28 00:31:38;;;;;;;;;;;;;;;12.99;100.00;98578.75;5011556;28;931;-58
2022/09/28 00:34:05;;;;;;;;;;;;;;;12.96;100.00;98590.75;4993586;28;1330;-58
2022/09/28 00:36:32;;;;;;;;;;;;;;;12.91;100.00;98596.84;5011476;28;831;-59
2022/09/28 00:39:02;;;;;;;;;;;;;;;12.88;100.00;98601.28;5011412;28;843;-59
2022/09/28 00:41:29;;;;;;;;;;;;;;;12.89;100.00;98600.09;5011434;28;878;-59
2022/09/28 00:44:16;;;;;;;;;;;;;;;12.81;100.00;98604.31;5011590;28;843;-59
2022/09/28 00:46:43;;;;;;;;;;;;;;;12.70;100.00;98603.91;4980817;28;1970;-59
2022/09/28 00:49:14;;;;;;;;;;;;;;;12.59;100.00;98604.25;5011327;28;855;-59
2022/09/28 00:51:43;;;;;;;;;;;;;;;12.47;100.00;98600.25;5012276;28;835;-58
2022/09/28 00:54:10;;;;;;;;;;;;;;;12.40;100.00;98606.78;5015007;28;870;-59
2022/09/28 00:56:39;;;;;;;;;;;;;;;12.34;100.00;98602.25;5014985;28;803;-58
2022/09/28 00:59:07;;;;;;;;;;;;;;;12.25;100.00;98600.91;5014982;28;842;-58
2022/09/28 01:01:34;;;;;;;;;;;;;;;12.21;100.00;98610.56;5015151;28;870;-59
2022/09/28 01:04:03;;;;;;;;;;;;;;;12.18;100.00;98600.34;5015004;28;854;-59
2022/09/28 01:06:32;;;;;;;;;;;;;;;12.16;100.00;98606.34;4997018;28;1944;-59
2022/09/28 01:09:01;;;;;;;;;;;;;;;12.10;100.00;98604.56;4997098;28;1453;-58
2022/09/28 01:11:31;;;;;;;;;;;;;;;12.00;100.00;98603.69;4997064;28;1193;-59
2022/09/28 01:13:57;;;;;;;;;;;;;;;11.88;100.00;98602.44;5014522;28;795;-59
2022/09/28 01:16:40;;;;;;;;;;;;;;;11.87;100.00;98595.31;5014582;28;788;-59
2022/09/28 01:19:07;;;;;;;;;;;;;;;11.85;100.00;98598.53;5014594;28;839;-59
2022/09/28 01:21:37;;;;;;;;;;;;;;;11.80;100.00;98593.53;5014691;28;775;-59
2022/09/28 01:24:03;;;;;;;;;;;;;;;11.77;100.00;98588.88;5014474;28;818;-58
2022/09/28 01:26:53;;;;;;;;;;;;;;;11.70;100.00;98583.56;5014669;28;1949;-59
2022/09/28 01:29:28;;;;;;;;;;;;;;;11.66;100.00;98577.34;5014392;28;834;-59
2022/09/28 01:32:15;;;;;;;;;;;;;;;11.64;100.00;98575.00;5014372;28;1023;-58
2022/09/28 01:34:45;;;;;;;;;;;;;;;11.59;100.00;98578.31;5013771;28;1207;-59
2022/09/28 01:37:15;;;;;;;;;;;;;;;11.58;100.00;98581.53;5014104;28;811;-59
2022/09/28 01:39:45;;;;;;;;;;;;;;;11.62;100.00;98577.44;5014437;28;1297;-59
2022/09/28 01:42:33;;;;;;;;;;;;;;;11.63;100.00;98587.31;5014020;28;851;-59
2022/09/28 01:45:03;;;;;;;;;;;;;;;11.78;100.00;98590.44;5013978;28;1335;-58
2022/09/28 01:47:32;;;;;;;;;;;;;;;11.75;100.00;98591.28;5014265;28;1906;-59
2022/09/28 01:50:19;;;;;;;;;;;;;;;11.98;100.00;98595.78;5013975;28;835;-59
2022/09/28 01:52:55;;;;;;;;;;;;;;;12.15;100.00;98598.47;5013800;28;1264;-59
2022/09/28 01:55:30;;;;;;;;;;;;;;;12.23;100.00;98597.81;4996234;28;898;-59
2022/09/28 01:58:00;;;;;;;;;;;;;;;12.24;100.00;98595.81;5013782;28;799;-58
2022/09/28 02:00:27;;;;;;;;;;;;;;;12.15;100.00;98592.94;5013846;28;862;-59
2022/09/28 02:03:05;;;;;;;;;;;;;;;12.03;100.00;98592.50;5013363;28;862;-58
2022/09/28 02:05:33;;;;;;;;;;;;;;;11.96;100.00;98589.16;5013662;28;1019;-59
2022/09/28 02:08:18;;;;;;;;;;;;;;;11.97;100.00;98590.69;5013570;28;1958;-59
2022/09/28 02:10:49;;;;;;;;;;;;;;;11.91;100.00;98587.72;5013680;28;826;-59
2022/09/28 02:13:18;;;;;;;;;;;;;;;11.83;100.00;98589.88;4995861;28;1276;-58
2022/09/28 02:15:49;;;;;;;;;;;;;;;11.77;100.00;98588.88;5013601;28;819;-58
2022/09/28 02:18:16;;;;;;;;;;;;;;;11.76;100.00;98592.88;5013530;28;809;-59
2022/09/28 02:20:48;;;;;;;;;;;;;;;11.72;100.00;98583.88;5013422;28;846;-58
2022/09/28 02:23:16;;;;;;;;;;;;;;;11.58;100.00;98587.81;5013650;28;897;-59
2022/09/28 02:25:48;;;;;;;;;;;;;;;11.47;100.00;98594.88;4995902;28;1352;-58
2022/09/28 02:28:15;;;;;;;;;;;;;;;11.44;100.00;98591.00;5013256;28;795;-58
2022/09/28 02:30:43;;;;;;;;;;;;;;;11.51;100.00;98582.50;5013329;28;867;-58
2022/09/28 02:33:21;;;;;;;;;;;;;;;11.56;100.00;98589.47;5012908;28;1189;-58
2022/09/28 02:35:47;;;;;;;;;;;;;;;11.60;100.00;98588.16;5013111;28;862;-59
2022/09/28 02:38:15;;;;;;;;;;;;;;;11.68;100.00;98588.75;5013299;28;799;-59
2022/09/28 02:40:44;;;;;;;;;;;;;;;11.79;100.00;98591.19;5012925;28;839;-59
2022/09/28 02:43:11;;;;;;;;;;;;;;;11.87;100.00;98595.31;5013019;28;859;-59
2022/09/28 02:45:56;;;;;;;;;;;;;;;11.92;100.00;98600.31;5012953;28;866;-59
2022/09/28 02:48:28;;;;;;;;;;;;;;;11.95;100.00;98596.69;5012888;28;890;-59
2022/09/28 02:51:01;;;;;;;;;;;;;;;11.99;100.00;98599.34;5012864;28;838;-59
2022/09/28 02:53:46;;;;;;;;;;;;;;;12.01;100.00;98594.94;5012777;28;862;-59
2022/09/28 02:56:36;;;;;;;;;;;;;;;11.90;100.00;98602.75;5012728;28;819;-59
2022/09/28 02:59:15;;;;;;;;;;;;;;;11.87;100.00;98591.78;5002634;28;1189;-59
2022/09/28 03:01:48;;;;;;;;;;;;;;;11.82;100.00;98604.16;5012688;28;830;-59
2022/09/28 03:04:21;;;;;;;;;;;;;;;11.87;100.00;98605.63;5012612;28;807;-59
2022/09/28 03:06:57;;;;;;;;;;;;;;;11.84;100.00;98602.53;5012593;28;1943;-58
2022/09/28 03:09:31;;;;;;;;;;;;;;;11.84;100.00;98612.78;5012552;28;851;-59
2022/09/28 03:11:59;;;;;;;;;;;;;;;11.85;100.00;98604.06;5012322;28;886;-59
2022/09/28 03:14:26;;;;;;;;;;;;;;;11.86;100.00;98607.59;4994649;28;1312;-58
2022/09/28 03:16:52;;;;;;;;;;;;;;;11.89;100.00;98609.53;5012378;28;838;-58
2022/09/28 03:19:21;;;;;;;;;;;;;;;11.93;100.00;98606.66;5012378;28;909;-59
2022/09/28 03:21:48;;;;;;;;;;;;;;;11.95;100.00;98610.53;5012269;28;878;-59
2022/09/28 03:24:15;;;;;;;;;;;;;;;11.96;100.00;98611.31;5012253;28;882;-59
2022/09/28 03:26:41;;;;;;;;;;;;;;;11.85;100.00;98612.38;5012214;28;1886;-59
2022/09/28 03:29:08;;;;;;;;;;;;;;;11.80;100.00;98607.38;5012126;28;859;-59
2022/09/28 03:31:34;;;;;;;;;;;;;;;11.81;100.00;98617.22;5012162;28;933;-58
2022/09/28 03:34:01;;;;;;;;;;;;;;;11.95;100.00;98610.53;5011882;28;1252;-59
2022/09/28 03:36:28;;;;;;;;;;;;;;;12.12;100.00;98610.44;5012084;28;791;-59
2022/09/28 03:38:55;;;;;;;;;;;;;;;12.22;100.00;98603.78;5012076;28;803;-59
2022/09/28 03:41:26;;;;;;;;;;;;;;;12.31;100.00;98598.38;5011946;28;866;-59
2022/09/28 03:43:53;;;;;;;;;;;;;;;12.42;100.00;98598.81;5011966;28;819;-59
2022/09/28 03:46:20;;;;;;;;;;;;;;;12.53;100.00;98592.94;5011868;28;1962;-59
2022/09/28 03:48:47;;;;;;;;;;;;;;;12.59;100.00;98590.38;5012115;28;862;-59
2022/09/28 03:51:13;;;;;;;;;;;;;;;12.61;100.00;98596.22;5011799;28;824;-59
2022/09/28 03:53:40;;;;;;;;;;;;;;;12.57;100.00;98598.38;5011897;28;807;-59
2022/09/28 03:56:10;;;;;;;;;;;;;;;12.48;100.00;98601.78;5011843;28;843;-59
2022/09/28 03:58:37;;;;;;;;;;;;;;;12.31;100.00;98595.63;4994475;28;1208;-59
2022/09/28 04:01:05;;;;;;;;;;;;;;;12.21;100.00;98602.25;5011754;28;846;-59
2022/09/28 04:03:33;;;;;;;;;;;;;;;12.16;100.00;98611.09;5012553;28;854;-59
2022/09/28 04:06:00;;;;;;;;;;;;;;;12.15;100.00;98612.34;5011923;28;1886;-59
2022/09/28 04:08:26;;;;;;;;;;;;;;;12.14;100.00;98619.88;5012301;28;756;-59
2022/09/28 04:10:56;;;;;;;;;;;;;;;12.11;100.00;98619.97;5011558;28;867;-59
2022/09/28 04:13:23;;;;;;;;;;;;;;;12.06;100.00;98618.53;5011743;28;851;-59
2022/09/28 04:15:55;;;;;;;;;;;;;;;12.11;100.00;98617.19;5011868;28;819;-59
2022/09/28 04:18:22;;;;;;;;;;;;;;;12.20;100.00;98629.16;4993988;28;938;-59
2022/09/28 04:20:58;;;;;;;;;;;;;;;12.24;100.00;98627.06;5011624;28;858;-59
2022/09/28 04:23:26;;;;;;;;;;;;;;;12.46;100.00;98627.19;5011533;28;835;-59
2022/09/28 04:25:53;;;;;;;;;;;;;;;12.72;100.00;98629.19;5011484;28;2033;-59
2022/09/28 04:31:07;;;;;;;;;;;;;;;12.99;100.00;98634.97;5015493;28;617;-59
2022/09/28 04:33:34;;;;;;;;;;;;;;;13.05;100.00;98637.97;5015485;28;1141;-59
2022/09/28 04:36:00;;;;;;;;;;;;;;;13.11;100.00;98635.41;5015325;28;886;-59
2022/09/28 04:38:27;;;;;;;;;;;;;;;13.16;100.00;98637.59;5015305;28;796;-59
2022/09/28 04:40:54;;;;;;;;;;;;;;;13.21;100.00;98634.28;5015263;28;815;-59
2022/09/28 04:43:21;;;;;;;;;;;;;;;13.28;100.00;98625.69;5015164;28;799;-58
2022/09/28 04:45:48;;;;;;;;;;;;;;;13.32;100.00;98631.16;5015185;28;909;-59
2022/09/28 04:48:14;;;;;;;;;;;;;;;13.37;100.00;98636.91;5015005;28;1906;-59
2022/09/28 04:50:40;;;;;;;;;;;;;;;13.42;100.00;98630.00;5015105;28;878;-59
2022/09/28 04:53:07;;;;;;;;;;;;;;;13.45;100.00;98629.09;5015007;28;819;-59
2022/09/28 04:55:34;;;;;;;;;;;;;;;13.47;100.00;98635.00;5015006;28;823;-58
2022/09/28 04:58:03;;;;;;;;;;;;;;;13.51;100.00;98637.66;5014908;28;811;-58
2022/09/28 05:00:33;;;;;;;;;;;;;;;13.56;100.00;98645.38;5015135;28;848;-59
2022/09/28 05:03:00;;;;;;;;;;;;;;;13.63;100.00;98645.13;5015123;28;867;-58
2022/09/28 05:33:53;;;;;;;;;;;;;;;14.96;100.00;98670.69;5172647;23;1680;-73
2022/09/28 05:36:21;;;;;;;;;;;;;;;15.15;100.00;98675.06;4977388;28;1213;-74
2022/09/28 05:38:47;;;;;;;;;;;;;;;15.29;100.00;98680.00;4993980;28;881;-75
2022/09/28 05:41:14;;;;;;;;;;;;;;;15.38;100.00;98678.47;4995089;28;819;-76
2022/09/28 05:43:42;;;;;;;;;;;;;;;15.41;100.00;98678.34;4995148;28;794;-76
2022/09/28 05:46:09;;;;;;;;;;;;;;;15.38;100.00;98686.84;4995177;28;1976;-76
2022/09/28 05:48:36;;;;;;;;;;;;;;;15.42;100.00;98688.22;4977515;28;1229;-75
2022/09/28 05:51:03;;;;;;;;;;;;;;;15.57;100.00;98685.59;4994816;28;881;-74
2022/09/28 05:53:29;;;;;;;;;;;;;;;15.71;100.00;98684.22;4994950;28;869;-73
2022/09/28 05:55:59;;;;;;;;;;;;;;;15.85;100.00;98685.63;4994667;28;830;-73
2022/09/28 05:58:26;;;;;;;;;;;;;;;16.06;100.00;98681.88;4977017;28;1079;-75
2022/09/28 06:00:54;;;;;;;;;;;;;;;16.28;100.00;98680.91;4977150;28;1205;-73
2022/09/28 06:03:21;;;;;;;;;;;;;;;16.49;100.00;98685.50;4976905;28;1256;-74
2022/09/28 06:05:48;;;;;;;;;;;;;;;16.72;100.00;98678.44;4977185;28;1089;-75
2022/09/28 06:08:14;;;;;;;;;;;;;;;16.83;100.00;98686.31;4977341;28;1886;-76
2022/09/28 06:10:41;;;;;;;;;;;;;;;16.95;100.00;98681.75;4994539;28;838;-75
2022/09/28 06:13:09;;;;;;;;;;;;;;;17.07;100.00;98694.72;4976716;28;1123;-76
2022/09/28 06:15:36;;;;;;;;;;;;;;;17.22;100.00;98697.59;4976870;28;1438;-75
2022/09/28 06:18:04;;;;;;;;;;;;;;;17.35;100.00;98700.91;4976941;28;1189;-74
2022/09/28 06:20:33;;;;;;;;;;;;;;;17.49;99.74;98695.84;4977001;28;1201;-74
2022/09/28 06:22:59;;;;;;;;;;;;;;;17.65;97.59;98708.63;4992339;28;1456;-74
2022/09/28 06:25:27;;;;;;;;;;;;;;;17.82;94.76;98714.56;4976512;28;1449;-74
2022/09/28 06:27:56;;;;;;;;;;;;;;;18.05;94.52;98716.53;4993774;28;1889;-77
2022/09/28 06:30:25;;;;;;;;;;;;;;;18.27;93.86;98723.78;4976483;28;1423;-76
2022/09/28 06:32:53;;;;;;;;;;;;;;;18.49;92.22;98721.38;4976035;28;1409;-75
2022/09/28 06:35:20;;;;;;;;;;;;;;;18.60;91.43;98728.41;4993722;28;870;-75
2022/09/28 06:37:47;;;;;;;;;;;;;;;18.75;92.74;98715.16;4993732;28;803;-75
2022/09/28 06:40:14;;;;;;;;;;;;;;;18.95;92.42;98714.50;4993421;28;950;-74
2022/09/28 06:42:40;;;;;;;;;;;;;;;19.14;91.79;98715.03;4976392;28;1209;-76
2022/09/28 06:45:09;;;;;;;;;;;;;;;19.30;91.19;98714.47;4993469;28;839;-77
2022/09/28 06:47:36;;;;;;;;;;;;;;;19.31;90.09;98723.63;4993255;28;1906;-75
2022/09/28 06:50:10;;;;;;;;;;;;;;;19.40;90.42;98731.94;4975526;28;1138;-77
2022/09/28 06:52:37;;;;;;;;;;;;;;;19.63;89.87;98735.81;4976210;28;1187;-77
2022/09/28 06:55:05;;;;;;;;;;;;;;;19.92;88.49;98729.28;4993295;28;811;-76
2022/09/28 06:57:32;;;;;;;;;;;;;;;20.34;84.70;98718.75;4976299;28;1059;-77
2022/09/28 06:59:58;;;;;;;;;;;;;;;20.88;81.79;98718.19;4993338;28;819;-78
2022/09/28 07:02:25;;;;;;;;;;;;;;;21.80;77.33;98716.13;4993190;28;877;-77
2022/09/28 07:04:52;;;;;;;;;;;;;;;22.87;76.46;98713.47;4993378;28;882;-76
2022/09/28 07:07:28;;;;;;;;;;;;;;;23.73;75.17;98714.81;4993314;28;1949;-76
2022/09/28 07:09:55;;;;;;;;;;;;;;;24.75;74.50;98712.13;4993104;28;838;-77
2022/09/28 07:12:25;;;;;;;;;;;;;;;25.49;72.88;98715.75;4975580;28;1174;-77
2022/09/28 07:14:56;;;;;;;;;;;;;;;25.92;70.24;98708.56;4992111;28;1067;-76
2022/09/28 07:17:26;;;;;;;;;;;;;;;26.11;68.86;98706.47;4991712;28;1260;-76
2022/09/28 07:19:52;;;;;;;;;;;;;;;26.22;70.88;98712.00;4973500;28;1393;-77
2022/09/28 07:22:22;;;;;;;;;;;;;;;26.34;65.66;98711.81;4975643;28;1239;-77
2022/09/28 07:25:00;;;;;;;;;;;;;;;26.22;66.86;98708.38;4993029;28;1023;-77
2022/09/28 07:27:30;;;;;;;;;;;;;;;26.32;65.84;98714.44;4993091;28;1886;-77
2022/09/28 07:30:09;;;;;;;;;;;;;;;26.13;66.74;98711.63;4977560;28;1487;-76
2022/09/28 07:32:37;;;;;;;;;;;;;;;26.33;67.28;98707.44;4992601;28;1190;-76
2022/09/28 07:35:08;;;;;;;;;;;;;;;26.58;61.82;98710.97;4992772;28;831;-76
2022/09/28 07:37:36;;;;;;;;;;;;;;;26.48;65.43;98710.59;4975505;28;1269;-77
2022/09/28 07:42:58;;;;;;;;;;;;;;;26.34;65.47;98703.34;4993025;28;747;-75
2022/09/28 07:45:25;;;;;;;;;;;;;;;26.48;61.52;98700.00;4975651;28;1362;-77
2022/09/28 07:47:55;;;;;;;;;;;;;;;26.11;58.76;98700.06;4992419;28;1914;-74
2022/09/28 07:50:21;;;;;;;;;;;;;;;25.81;63.10;98692.47;4975036;28;1301;-75
2022/09/28 07:52:52;;;;;;;;;;;;;;;26.14;61.56;98698.97;4991400;28;1228;-76
2022/09/28 07:55:22;;;;;;;;;;;;;;;26.44;62.11;98693.13;4992657;28;819;-76
2022/09/28 07:58:00;;;;;;;;;;;;;;;26.64;61.83;98686.13;4975084;28;1221;-77
2022/09/28 08:00:31;;;;;;;;;;;;;;;26.62;60.52;98689.50;4975165;28;1318;-75
2022/09/28 08:03:02;;;;;;;;;;;;;;;26.50;59.82;98693.81;4974194;28;1205;-76
2022/09/28 08:05:30;;;;;;;;;;;;;;;26.37;60.62;98696.56;4992374;28;851;-75
2022/09/28 08:08:05;;;;;;;;;;;;;;;26.60;61.39;98688.50;4992238;28;1890;-78
2022/09/28 08:10:32;;;;;;;;;;;;;;;26.94;62.59;98693.59;4992325;28;927;-76
2022/09/28 08:13:02;;;;;;;;;;;;;;;27.43;66.89;98698.88;4992362;28;815;-76
2022/09/28 08:15:37;;;;;;;;;;;;;;;27.96;64.60;98695.22;4992305;28;795;-76
2022/09/28 08:18:03;;;;;;;;;;;;;;;27.86;60.77;98695.66;4992491;28;807;-76
2022/09/28 08:23:15;;;;;;;;;;;;;;;27.23;54.20;98697.47;4992439;28;638;-77
2022/09/28 08:25:50;;;;;;;;;;;;;;;26.87;53.74;98700.69;4974995;28;1579;-73
2022/09/28 08:28:16;;;;;;;;;;;;;;;26.88;56.37;98696.53;4992001;28;1883;-77
2022/09/28 08:30:44;;;;;;;;;;;;;;;27.17;51.60;98694.72;4991855;28;846;-74
2022/09/28 08:33:11;;;;;;;;;;;;;;;27.23;56.50;98703.91;4992000;28;1204;-73
2022/09/28 08:35:39;;;;;;;;;;;;;;;27.28;54.13;98702.28;4992454;28;791;-74
2022/09/28 08:38:09;;;;;;;;;;;;;;;27.41;52.25;98693.00;4992083;28;827;-74
2022/09/28 08:40:55;;;;;;;;;;;;;;;27.37;50.32;98696.16;4974874;28;851;-77
2022/09/28 08:43:40;;;;;;;;;;;;;;;27.73;55.37;98700.59;4991844;28;865;-73
2022/09/28 08:46:08;;;;;;;;;;;;;;;27.84;47.91;98700.34;4991865;28;1918;-75
2022/09/28 08:48:44;;;;;;;;;;;;;;;27.64;50.88;98690.47;4991827;28;847;-72
2022/09/28 08:51:31;;;;;;;;;;;;;;;27.85;49.33;98685.63;4992069;28;859;-73
2022/09/28 08:53:58;;;;;;;;;;;;;;;27.77;47.88;98681.16;4952123;28;1257;-74
2022/09/28 08:56:30;;;;;;;;;;;;;;;27.47;46.69;98690.81;4991763;28;862;-74
2022/09/28 08:59:16;;;;;;;;;;;;;;;27.38;47.45;98677.81;4991987;28;776;-74
2022/09/28 09:01:52;;;;;;;;;;;;;;;27.60;47.50;98695.69;4991758;28;784;-76
2022/09/28 09:04:19;;;;;;;;;;;;;;;27.53;42.57;98690.69;4991787;28;848;-73
2022/09/28 09:06:55;;;;;;;;;;;;;;;27.06;44.85;98690.00;4991677;28;1898;-75
2022/09/28 09:09:40;;;;;;;;;;;;;;;27.22;47.02;98682.50;4991851;28;823;-77
2022/09/28 09:12:12;;;;;;;;;;;;;;;27.14;42.52;98686.50;4991942;28;787;-72
2022/09/28 09:14:42;;;;;;;;;;;;;;;27.28;41.87;98677.50;4995093;28;870;-73
2022/09/28 09:17:21;;;;;;;;;;;;;;;27.43;40.37;98688.28;4995229;28;823;-73
2022/09/28 09:20:15;;;;;;;;;;;;;;;27.50;40.50;98684.03;4995142;28;799;-75
2022/09/28 09:22:50;;;;;;;;;;;;;;;27.58;39.86;98687.72;4965415;28;1230;-73
2022/09/28 09:25:22;;;;;;;;;;;;;;;27.58;38.93;98698.31;4995051;28;973;-75
2022/09/28 09:28:02;;;;;;;;;;;;;;;27.52;38.26;98698.44;4994811;28;1894;-76
2022/09/28 09:43:37;;;;;;;;;;;;;;;27.46;36.74;98700.63;4994506;28;1187;-73
2022/09/28 09:46:32;;;;;;;;;;;;;;;27.42;36.21;98695.28;4994459;28;1906;-76
2022/09/28 09:49:01;;;;;;;;;;;;;;;27.31;36.69;98692.66;4977139;28;1573;-74
2022/09/28 09:51:39;;;;;;;;;;;;;;;27.56;36.13;98692.44;4994402;28;839;-73
2022/09/28 09:54:12;;;;;;;;;;;;;;;27.73;36.68;98692.84;4994328;28;886;-75
2022/09/28 09:56:53;;;;;;;;;;;;;;;27.75;36.01;98698.72;4976970;28;1253;-74
2022/09/28 09:59:26;;;;;;;;;;;;;;;27.96;34.00;98693.16;4994243;28;857;-75
2022/09/28 10:14:27;;;;;;;;;;;;;;;27.85;32.41;98679.19;4994387;28;653;-75
2022/09/28 10:17:25;;;;;;;;;;;;;;;27.99;32.23;98674.25;4983763;28;1104;-74
2022/09/28 10:19:53;;;;;;;;;;;;;;;28.15;32.63;98664.56;4994174;28;831;-72
2022/09/28 10:25:35;;;;;;;;;;;;;;;28.18;32.14;98665.53;4986627;28;1209;-73
2022/09/28 10:28:05;;;;;;;;;;;;;;;28.15;31.61;98669.50;4976148;28;1957;-73
2022/09/28 10:30:40;;;;;;;;;;;;;;;28.20;32.28;98657.97;4993674;28;820;-73
2022/09/28 10:33:26;;;;;;;;;;;;;;;28.74;31.97;98677.63;4994071;28;1009;-72
2022/09/28 10:35:53;;;;;;;;;;;;;;;28.79;30.46;98679.56;4993596;28;925;-72
2022/09/28 10:38:21;;;;;;;;;;;;;;;28.50;31.00;98674.59;4993547;28;862;-73
2022/09/28 10:40:55;;;;;;;;;;;;;;;28.86;30.21;98678.88;4993491;28;992;-74
2022/09/28 10:43:25;;;;;;;;;;;;;;;28.67;29.41;98670.56;4993404;28;1472;-72
2022/09/28 10:46:21;;;;;;;;;;;;;;;28.57;29.82;98678.06;4993561;28;808;-73
2022/09/28 10:48:53;;;;;;;;;;;;;;;28.75;29.67;98667.78;4993555;28;839;-75
2022/09/28 10:51:40;;;;;;;;;;;;;;;28.76;29.80;98655.84;4993341;28;846;-74
2022/09/28 10:54:15;;;;;;;;;;;;;;;28.90;29.67;98657.28;4993277;28;863;-73
2022/09/28 10:56:42;;;;;;;;;;;;;;;29.25;29.41;98655.09;4993237;28;905;-74
2022/09/28 10:59:25;;;;;;;;;;;;;;;29.41;29.11;98647.38;4975643;28;804;-74
2022/09/28 11:01:53;;;;;;;;;;;;;;;29.47;29.34;98652.91;4975892;28;1284;-74
2022/09/28 11:04:21;;;;;;;;;;;;;;;29.46;29.06;98654.97;4993174;28;886;-74
2022/09/28 11:06:49;;;;;;;;;;;;;;;29.37;29.67;98652.66;4975552;28;1947;-72
2022/09/28 11:09:28;;;;;;;;;;;;;;;29.76;28.79;98647.16;4992912;28;864;-75
2022/09/28 11:11:55;;;;;;;;;;;;;;;29.83;28.39;98644.34;4992956;28;882;-73
2022/09/28 11:14:26;;;;;;;;;;;;;;;29.71;28.62;98637.47;4993016;28;799;-75
2022/09/28 11:17:16;;;;;;;;;;;;;;;30.00;28.13;98632.44;4992943;28;886;-74
2022/09/28 11:20:28;;;;;;;;;;;;;;;29.86;27.72;98628.22;4982651;28;1197;-74
2022/09/28 11:22:59;;;;;;;;;;;;;;;29.99;27.87;98627.28;4984582;28;1089;-74
2022/09/28 11:25:26;;;;;;;;;;;;;;;29.91;27.72;98627.25;4992756;28;854;-75
2022/09/28 11:27:53;;;;;;;;;;;;;;;29.90;27.88;98631.44;4992490;28;1894;-75
2022/09/28 11:33:48;;;;;;;;;;;;;;;30.69;27.20;98632.50;4993081;28;974;-74
